ADDS METAR Data INFO
IDs: Format: Raw Decoded Include TAF

Data at: 0143 UTC 21 Apr 2018

KAFW 210053Z 14011G18KT 10SM FEW250 18/06 A3004 RMK AO2 SLP169 T01830056
KAFW 202353Z 15014KT 10SM FEW250 19/05 A3005 RMK AO2 SLP174 T01940050 10211 20172 58017
KAFW 202253Z 13016KT 10SM FEW250 21/04 A3007 RMK AO2 SLP180 T02060044
KAFW 202153Z 11010G17KT 10SM FEW250 21/04 A3009 RMK AO2 SLP187 T02060044
KAFW 202053Z 13012KT 10SM FEW080 FEW250 21/04 A3010 RMK AO2 SLP192 T02060044 58042
KAFW 201953Z 14015G18KT 10SM FEW080 SCT190 BKN250 20/04 A3015 RMK AO2 SLP209 T02000044
KAFW 201853Z 13015G23KT 10SM FEW080 SCT190 BKN250 18/03 A3020 RMK AO2 SLP224 T01830033
KAFW 201753Z 14012G18KT 10SM FEW080 SCT180 BKN250 17/03 A3023 RMK AO2 SLP235 T01720033 10172 20100 58022
KAFW 201653Z 12011G19KT 10SM FEW140 SCT230 16/03 A3028 RMK AO2 SLP253 T01610028
KAFW 201553Z 13014G20KT 10SM FEW140 SCT230 16/02 A3030 RMK AO2 SLP257 T01560022
KAFW 201453Z 14012KT 10SM SCT140 BKN220 14/03 A3030 RMK AO2 SLP258 T01390028 50015
KAFW 201353Z 11011KT 10SM SCT140 BKN220 12/04 A3030 RMK AO2 SLP258 T01220039
KAFW 201253Z 11012G17KT 10SM FEW140 BKN250 11/04 A3027 RMK AO2 SLP248 T01060039
KAFW 201153Z 11011KT 10SM BKN250 10/05 A3025 RMK AO2 SLP240 T01000050 10111 20056 53000
KAFW 201053Z 09005KT 10SM BKN250 09/05 A3024 RMK AO2 SLP237 T00890050
KAFW 200953Z 00000KT 10SM CLR 08/05 A3025 RMK AO2 SLP239 T00830050
KAFW 200853Z 00000KT 10SM CLR 08/04 A3025 RMK AO2 SLP241 T00780044 58003
KAFW 200753Z 00000KT 10SM CLR 08/04 A3025 RMK AO2 SLP242 T00780039
KAFW 200653Z 00000KT 10SM CLR 10/04 A3026 RMK AO2 SLP243 T01000039
KAFW 200553Z 00000KT 10SM CLR 11/04 A3026 RMK AO2 SLP243 T01110044 10200 20106 402110039 50000
KAFW 200453Z VRB04KT 10SM CLR 11/04 A3026 RMK AO2 SLP246 T01060039
KAFW 200353Z 00000KT 10SM CLR 12/03 A3027 RMK AO2 SLP248 T01170033
KAFW 200253Z 00000KT 10SM CLR 12/03 A3026 RMK AO2 SLP245 T01170028 53003
KAFW 200153Z 05005KT 10SM CLR 15/03 A3025 RMK AO2 SLP241 T01500033
KAFW 200053Z 08006KT 10SM CLR 17/03 A3025 RMK AO2 SLP243 T01720028
KAFW 192353Z 06009KT 10SM FEW250 20/03 A3025 RMK AO2 SLP242 T02000028 10211 20183 56017
KAFW 192253Z 06010KT 10SM FEW250 21/03 A3026 RMK AO2 SLP245 T02060028
KAFW 192153Z 02006KT 10SM FEW250 21/03 A3028 RMK AO2 SLP252 T02110028
KAFW 192053Z 03011G15KT 10SM FEW250 21/03 A3030 RMK AO2 SLP258 T02060028 58026
KAFW 191953Z 36011KT 10SM BKN250 20/03 A3033 RMK AO2 SLP267 T02000033
KAFW 191853Z 01012G16KT 10SM BKN250 19/03 A3036 RMK AO2 SLP275 T01890028
KAFW 191753Z 01011G16KT 10SM BKN250 18/03 A3038 RMK AO2 SLP286 T01830028 10189 20050 50000
KAFW 191653Z 03013G17KT 10SM BKN250 18/02 A3038 RMK AO2 SLP286 T01780017
KAFW 191553Z 04013G17KT 10SM BKN250 17/02 A3039 RMK AO2 SLP288 T01670022
KAFW 191453Z 05010KT 10SM SCT250 14/01 A3038 RMK AO2 SLP286 T01440011 50020
KAFW 191353Z 04008KT 10SM SCT250 13/01 A3039 RMK AO2 SLP286 T01330011